Terminal Aerodrome Forecast
Issued by NWS

Home | Current Version | Previous Version | Text Only | Print | Product List | Glossary On
Versions: 1 2 3 4 5 6 7 8 9 10 11 12 13 14 15 16
000
FTUS43 KGLD 220520
TAFMCK
TAF
KMCK 220520Z 2206/2306 01012G18KT P6SM FEW020 SCT140 WS020/01040KT
     FM220800 01010KT P6SM SCT020 SCT140 WS020/01040KT
      TEMPO 2208/2211 BKN020
     FM221400 04008KT P6SM FEW100 SCT150
     FM222100 08008KT P6SM SKC
     FM230200 13006KT P6SM SKC=

USA.gov is the U.S. government's official web portal to all federal, state and local government web resources and services.